Time;durP1;ratioP1;P1;durP2;ratioP2;P2;SDS_P1;SDS_P2;PMS_P1;PMS_P2;Temp;Humidity;BMP_temperature;BMP_pressure;BME280_temperature;BME280_humidity;BME280_pressure;Samples;Min_cycle;Max_cycle;Signal;HPM_P1;HPM_P2
2022/03/07 04:00:35;;;;;;;2.50;1.60;;;12.70;48.60;;;;;;6096337;23;46033;31
2022/03/07 04:03:01;;;;;;;1.98;1.60;;;12.70;48.60;;;;;;4942090;28;47163;-63
2022/03/07 04:05:27;;;;;;;2.15;1.80;;;12.70;48.50;;;;;;4932589;28;45286;-59
2022/03/07 04:07:52;;;;;;;1.95;1.70;;;12.70;48.50;;;;;;4934149;28;45278;-62
2022/03/07 04:10:18;;;;;;;1.77;1.60;;;12.70;48.50;;;;;;4937142;28;45659;-65
2022/03/07 04:12:45;;;;;;;2.30;1.67;;;12.70;48.50;;;;;;4966810;28;45363;-58
2022/03/07 04:15:10;;;;;;;2.97;2.05;;;12.70;48.50;;;;;;4967513;28;44597;-64
2022/03/07 04:17:40;;;;;;;1.60;1.35;;;12.70;48.50;;;;;;4953133;28;45092;-62
2022/03/07 04:20:07;;;;;;;1.73;1.60;;;12.60;48.50;;;;;;4954572;28;45293;-62
2022/03/07 04:22:33;;;;;;;1.88;1.70;;;12.70;48.50;;;;;;4953010;28;47233;-63
2022/03/07 04:24:59;;;;;;;1.90;1.70;;;12.70;48.60;;;;;;4968790;28;45100;-62
2022/03/07 04:27:24;;;;;;;2.13;1.73;;;12.70;48.50;;;;;;4953222;28;45018;-61
2022/03/07 04:29:50;;;;;;;1.67;1.48;;;12.70;48.50;;;;;;4950449;28;45389;-58
2022/03/07 04:32:16;;;;;;;2.42;1.70;;;12.60;48.60;;;;;;4967638;28;45247;-63
2022/03/07 04:34:42;;;;;;;2.22;1.83;;;12.60;48.60;;;;;;4951807;28;45579;-62
2022/03/07 04:37:07;;;;;;;1.88;1.60;;;12.60;48.60;;;;;;4954446;28;45374;-62
2022/03/07 04:39:33;;;;;;;1.70;1.58;;;12.60;48.60;;;;;;4950469;28;45183;-62
2022/03/07 04:41:58;;;;;;;1.80;1.48;;;12.60;49.20;;;;;;4952367;28;45955;-62
2022/03/07 04:44:24;;;;;;;2.17;1.73;;;12.60;48.60;;;;;;4956307;28;45412;-64
2022/03/07 04:46:50;;;;;;;1.77;1.50;;;12.60;48.50;;;;;;4935933;28;45209;-59
2022/03/07 04:49:15;;;;;;;2.13;1.80;;;12.60;48.60;;;;;;4949462;28;45532;-61
2022/03/07 04:51:45;;;;;;;1.67;1.42;;;12.60;48.70;;;;;;4968849;28;45371;-63
2022/03/07 04:54:12;;;;;;;2.35;1.77;;;12.60;48.70;;;;;;4954538;28;44789;-62
2022/03/07 04:56:38;;;;;;;1.83;1.60;;;12.60;48.80;;;;;;4956168;28;45620;-62
2022/03/07 04:59:03;;;;;;;1.60;1.50;;;12.60;48.60;;;;;;4952712;28;45183;-63
2022/03/07 05:01:29;;;;;;;1.70;1.58;;;12.60;48.60;;;;;;4949315;28;45569;-63
2022/03/07 05:03:55;;;;;;;2.13;1.73;;;12.60;48.50;;;;;;4933344;28;45535;-63
2022/03/07 05:06:20;;;;;;;1.88;1.73;;;12.60;48.60;;;;;;4950146;28;44914;-63
2022/03/07 05:08:46;;;;;;;2.75;1.77;;;12.60;48.90;;;;;;4934976;28;45406;-61
2022/03/07 05:11:11;;;;;;;1.98;1.33;;;12.60;48.50;;;;;;4953916;28;45748;-63
2022/03/07 05:13:37;;;;;;;1.98;1.40;;;12.60;48.50;;;;;;4971388;28;45375;-62
2022/03/07 05:16:03;;;;;;;2.08;1.70;;;12.60;48.60;;;;;;4949880;28;44888;-62
2022/03/07 05:18:29;;;;;;;3.15;1.67;;;12.60;48.60;;;;;;4951108;28;45249;-61
2022/03/07 05:20:55;;;;;;;2.42;1.58;;;12.60;48.60;;;;;;4954437;28;45321;-64
2022/03/07 05:23:20;;;;;;;2.17;1.58;;;12.60;48.60;;;;;;4954817;28;45486;-64
2022/03/07 05:25:46;;;;;;;1.30;1.13;;;12.50;48.60;;;;;;4953300;28;45361;-63
2022/03/07 05:28:11;;;;;;;2.20;1.65;;;12.60;48.80;;;;;;4957345;28;45205;-63
2022/03/07 05:30:37;;;;;;;2.50;1.58;;;12.50;48.60;;;;;;4953283;28;45997;-62
2022/03/07 05:33:02;;;;;;;1.80;1.48;;;12.60;48.60;;;;;;4957294;28;45411;-63
2022/03/07 05:35:29;;;;;;;2.17;1.45;;;12.60;48.60;;;;;;4954490;28;45876;-63
2022/03/07 05:37:55;;;;;;;1.88;1.52;;;12.50;48.50;;;;;;4952090;28;45197;-63
2022/03/07 05:40:20;;;;;;;2.10;1.70;;;12.50;48.70;;;;;;4953051;28;46181;-64
2022/03/07 05:42:46;;;;;;;2.38;2.05;;;12.50;48.60;;;;;;4953274;28;45018;-62
2022/03/07 05:45:12;;;;;;;2.45;1.80;;;12.50;48.60;;;;;;4948926;28;45541;-63
2022/03/07 05:47:38;;;;;;;2.05;1.70;;;12.50;49.10;;;;;;4950605;28;44837;-62
2022/03/07 05:50:04;;;;;;;1.65;1.55;;;12.50;48.50;;;;;;4970387;28;47070;-61
2022/03/07 05:52:31;;;;;;;1.92;1.50;;;12.50;48.60;;;;;;4954221;28;45507;-65
2022/03/07 05:54:56;;;;;;;2.20;2.00;;;12.60;48.70;;;;;;4955504;28;44670;-61
2022/03/07 05:57:22;;;;;;;1.77;1.65;;;12.50;48.70;;;;;;4964112;28;45461;-62
2022/03/07 05:59:48;;;;;;;2.10;1.60;;;12.50;48.60;;;;;;4955526;28;46076;-65
2022/03/07 06:02:13;;;;;;;1.70;1.60;;;12.50;48.60;;;;;;4933299;28;45490;-63
2022/03/07 06:04:39;;;;;;;1.60;1.50;;;12.50;48.60;;;;;;4967249;28;45579;-63
2022/03/07 06:07:04;;;;;;;1.50;1.38;;;12.50;48.60;;;;;;4944582;28;45264;-63
2022/03/07 06:09:30;;;;;;;2.00;1.73;;;12.50;48.50;;;;;;4945066;28;46388;-66
2022/03/07 06:11:56;;;;;;;1.50;1.25;;;12.50;48.60;;;;;;4950025;28;45225;-62
2022/03/07 06:14:21;;;;;;;1.85;1.63;;;12.50;48.60;;;;;;4956827;28;45187;-62
2022/03/07 06:16:47;;;;;;;1.50;1.33;;;12.50;48.60;;;;;;4956772;28;45139;-60
2022/03/07 06:19:12;;;;;;;2.03;1.60;;;12.50;48.60;;;;;;4954467;28;45444;-63
2022/03/07 06:21:38;;;;;;;2.20;1.65;;;12.50;48.50;;;;;;4952603;28;45439;-58
2022/03/07 06:24:04;;;;;;;1.60;1.50;;;12.50;48.60;;;;;;4953865;28;45000;-63
2022/03/07 06:26:29;;;;;;;2.63;1.90;;;12.50;48.40;;;;;;4951697;28;45083;-63
2022/03/07 06:28:55;;;;;;;2.35;1.65;;;12.50;48.50;;;;;;4953110;28;46644;-64
2022/03/07 06:31:21;;;;;;;1.65;1.42;;;12.50;48.50;;;;;;4951631;28;45436;-65
2022/03/07 06:33:46;;;;;;;1.80;1.40;;;12.50;48.50;;;;;;4952632;28;45118;-63
2022/03/07 06:36:12;;;;;;;1.60;1.48;;;12.50;48.60;;;;;;4933135;28;45479;-62
2022/03/07 06:38:39;;;;;;;1.40;1.30;;;12.50;48.50;;;;;;4970145;28;45374;-62
2022/03/07 06:41:05;;;;;;;2.22;1.67;;;12.50;48.50;;;;;;4946445;28;45354;-63
2022/03/07 06:43:31;;;;;;;1.65;1.55;;;12.50;48.50;;;;;;4964761;28;45313;-63
2022/03/07 06:45:56;;;;;;;1.90;1.70;;;12.50;48.50;;;;;;4953570;28;45518;-63
2022/03/07 06:48:22;;;;;;;1.88;1.65;;;12.50;48.50;;;;;;4970436;28;45463;-62
2022/03/07 06:50:47;;;;;;;2.00;1.50;;;12.50;48.40;;;;;;4949968;28;45359;-63
2022/03/07 06:53:13;;;;;;;1.92;1.73;;;12.50;48.40;;;;;;4956695;28;45223;-61
2022/03/07 06:55:39;;;;;;;2.95;1.75;;;12.50;48.40;;;;;;4949507;28;45261;-61
2022/03/07 06:58:04;;;;;;;1.63;1.23;;;12.50;48.50;;;;;;4946269;28;45652;-63
2022/03/07 07:00:30;;;;;;;2.45;1.63;;;12.50;48.50;;;;;;4949189;28;45479;-62
2022/03/07 07:02:56;;;;;;;2.30;1.67;;;12.60;48.30;;;;;;4949802;28;45658;-63
2022/03/07 07:05:21;;;;;;;1.58;1.42;;;12.70;48.10;;;;;;4955295;28;45745;-63
2022/03/07 07:07:47;;;;;;;3.20;1.38;;;12.80;47.90;;;;;;4956080;28;46036;-64
2022/03/07 07:10:15;;;;;;;1.52;1.20;;;13.00;47.60;;;;;;4955375;28;45234;-65
2022/03/07 07:12:40;;;;;;;1.50;1.33;;;13.20;47.40;;;;;;4952360;28;44626;-66
2022/03/07 07:15:07;;;;;;;1.67;1.42;;;13.30;47.20;;;;;;4973661;28;45420;-63
2022/03/07 07:17:33;;;;;;;1.65;1.27;;;13.40;47.00;;;;;;4955198;28;46326;-62
2022/03/07 07:19:59;;;;;;;1.60;1.30;;;13.60;46.90;;;;;;4956843;28;44949;-63
2022/03/07 07:22:24;;;;;;;1.48;1.20;;;13.70;46.80;;;;;;4966628;28;45510;-65
2022/03/07 07:24:50;;;;;;;2.28;1.70;;;13.80;46.60;;;;;;4945393;28;45445;-65
2022/03/07 07:27:15;;;;;;;1.55;1.30;;;13.90;46.50;;;;;;4957546;28;45981;-64
2022/03/07 07:29:41;;;;;;;1.75;1.17;;;14.10;46.40;;;;;;4942989;28;45199;-64
2022/03/07 07:32:07;;;;;;;1.35;1.15;;;14.20;46.40;;;;;;4941652;28;45325;-64
2022/03/07 07:34:32;;;;;;;1.63;1.30;;;14.30;46.10;;;;;;4948705;28;45457;-64
2022/03/07 07:36:58;;;;;;;1.27;1.13;;;14.40;46.10;;;;;;4947819;28;46072;-61
2022/03/07 07:39:24;;;;;;;1.67;1.20;;;14.60;46.10;;;;;;4955873;28;45313;-63
2022/03/07 07:41:49;;;;;;;1.65;1.20;;;14.70;45.90;;;;;;4955624;28;45211;-66
2022/03/07 07:44:16;;;;;;;1.27;1.17;;;14.90;45.80;;;;;;4950153;28;45136;-63
2022/03/07 08:29:38;;;;;;;3.05;1.05;;;16.80;43.90;;;;;;4961871;28;47791;-79
2022/03/07 08:32:07;;;;;;;1.10;0.80;;;16.90;44.00;;;;;;4962886;28;45642;-78
2022/03/07 08:34:32;;;;;;;1.27;0.90;;;17.00;43.90;;;;;;4989235;28;45540;-79
2022/03/07 08:36:58;;;;;;;1.58;1.05;;;17.10;43.90;;;;;;4938130;28;45791;-78
2022/03/07 08:39:24;;;;;;;1.00;0.90;;;17.20;43.80;;;;;;4950250;28;47185;-79
2022/03/07 08:41:49;;;;;;;0.73;0.73;;;17.40;43.80;;;;;;4982887;28;45315;-79
2022/03/07 08:44:15;;;;;;;1.20;1.00;;;17.50;43.70;;;;;;4982485;28;45285;-80
2022/03/07 08:46:41;;;;;;;0.95;0.80;;;17.60;43.60;;;;;;5007535;28;45537;-79
2022/03/07 08:49:06;;;;;;;1.20;0.93;;;17.70;43.70;;;;;;4986838;28;47075;-80
2022/03/07 08:51:32;;;;;;;1.27;0.95;;;17.80;43.50;;;;;;4983381;28;45477;-79
2022/03/07 08:53:58;;;;;;;0.80;0.80;;;17.90;43.50;;;;;;4993393;28;44972;-79
2022/03/07 08:56:23;;;;;;;1.15;0.90;;;18.00;44.00;;;;;;4999429;28;45215;-79
2022/03/07 08:58:49;;;;;;;0.73;0.73;;;18.10;43.30;;;;;;4981940;28;47283;-79
2022/03/07 09:01:16;;;;;;;0.93;0.77;;;18.20;43.30;;;;;;4964406;28;44994;-80
2022/03/07 09:03:42;;;;;;;1.90;0.90;;;18.30;43.20;;;;;;4966256;28;45303;-79
2022/03/07 09:06:08;;;;;;;0.63;0.63;;;18.30;43.20;;;;;;4982921;28;45394;-80
2022/03/07 09:08:33;;;;;;;2.20;0.90;;;18.40;43.00;;;;;;4965145;28;48679;-78
2022/03/07 09:10:59;;;;;;;1.35;0.90;;;18.50;43.00;;;;;;4949557;28;45275;-80
2022/03/07 09:13:24;;;;;;;0.90;0.73;;;18.60;42.90;;;;;;4982061;28;44987;-79
2022/03/07 09:15:50;;;;;;;1.20;0.90;;;18.80;42.90;;;;;;4954247;28;45354;-79
2022/03/07 09:18:15;;;;;;;0.98;0.90;;;18.80;42.80;;;;;;4998663;28;47014;-79
2022/03/07 09:20:41;;;;;;;1.27;0.90;;;18.90;42.70;;;;;;4979922;28;45161;-79
2022/03/07 09:23:07;;;;;;;4.35;0.90;;;19.00;42.60;;;;;;4998395;28;44716;-80
2022/03/07 09:25:32;;;;;;;0.80;0.80;;;19.10;42.60;;;;;;4965033;28;45146;-80
2022/03/07 09:27:58;;;;;;;1.38;1.00;;;19.20;42.60;;;;;;4962009;28;45313;-80
2022/03/07 09:30:23;;;;;;;1.75;1.00;;;19.30;42.40;;;;;;4966114;28;45463;-79
2022/03/07 09:32:49;;;;;;;0.80;0.80;;;19.40;42.40;;;;;;4974670;28;45693;-79
2022/03/07 09:35:15;;;;;;;3.13;0.65;;;19.50;42.30;;;;;;5008758;28;45566;-79
2022/03/07 09:37:41;;;;;;;0.77;0.70;;;19.60;42.30;;;;;;4982604;28;47455;-79
2022/03/07 09:40:07;;;;;;;1.55;0.82;;;19.70;42.30;;;;;;4982760;28;44658;-79
2022/03/07 09:42:33;;;;;;;1.05;0.80;;;19.70;42.10;;;;;;4985978;28;44894;-79
2022/03/07 09:44:59;;;;;;;1.00;0.80;;;19.80;42.10;;;;;;4965711;28;45648;-78
2022/03/07 09:47:24;;;;;;;1.88;0.82;;;20.00;42.00;;;;;;4994686;28;46092;-79
2022/03/07 09:49:51;;;;;;;0.93;0.80;;;20.00;42.00;;;;;;5003977;28;45368;-79
2022/03/07 09:52:16;;;;;;;1.25;0.80;;;20.20;41.90;;;;;;4984757;28;45505;-79
2022/03/07 09:54:42;;;;;;;0.80;0.80;;;20.30;41.80;;;;;;4984704;28;45127;-79
2022/03/07 09:57:07;;;;;;;0.85;0.80;;;20.30;41.60;;;;;;4945197;28;47854;-80
2022/03/07 09:59:35;;;;;;;1.10;0.82;;;20.40;41.60;;;;;;4990386;28;44966;-80
2022/03/07 10:02:01;;;;;;;0.75;0.68;;;20.50;41.60;;;;;;5012986;28;44583;-80
2022/03/07 10:04:28;;;;;;;1.63;0.77;;;20.60;41.60;;;;;;4989293;28;44952;-80
2022/03/07 10:06:53;;;;;;;1.20;0.60;;;20.70;41.50;;;;;;4968169;28;47136;-80
2022/03/07 10:09:28;;;;;;;3.45;0.70;;;20.80;41.40;;;;;;4985482;28;44782;-79
2022/03/07 10:12:00;;;;;;;1.85;0.73;;;20.90;41.10;;;;;;4988449;28;45264;-80
2022/03/07 10:14:37;;;;;;;1.17;0.60;;;21.00;41.30;;;;;;4985498;28;44895;-79
2022/03/07 10:17:03;;;;;;;5.05;0.70;;;21.10;41.10;;;;;;4994245;28;45542;-82
2022/03/07 10:19:29;;;;;;;1.42;0.73;;;21.10;41.10;;;;;;5004343;28;45284;-82
2022/03/07 10:21:54;;;;;;;0.80;0.68;;;21.20;41.00;;;;;;4972924;28;45288;-81
2022/03/07 10:24:33;;;;;;;1.00;0.75;;;21.30;41.00;;;;;;4952856;28;45470;-82
2022/03/07 10:26:59;;;;;;;1.48;0.57;;;21.40;40.60;;;;;;4970316;28;45335;-81
2022/03/07 10:33:09;;;;;;;3.10;0.80;;;21.50;40.40;;;;;;4999865;28;44830;-81
2022/03/07 10:35:40;;;;;;;0.60;0.60;;;21.60;40.40;;;;;;5000218;28;44673;-81
2022/03/07 10:38:17;;;;;;;0.80;0.63;;;21.60;40.70;;;;;;4983842;28;45553;-81
2022/03/07 10:40:47;;;;;;;1.45;0.75;;;21.70;40.40;;;;;;4999808;28;45453;-82
2022/03/07 10:43:12;;;;;;;2.10;0.68;;;21.70;40.60;;;;;;4967763;28;45569;-81
2022/03/07 10:45:46;;;;;;;1.02;0.73;;;21.80;40.60;;;;;;4976254;28;45445;-81
2022/03/07 10:48:12;;;;;;;1.00;0.90;;;21.90;40.40;;;;;;4995543;28;46994;-81
2022/03/07 10:50:38;;;;;;;2.00;0.40;;;21.90;40.50;;;;;;4984839;28;45134;-81
2022/03/07 10:53:06;;;;;;;1.17;0.57;;;22.00;40.50;;;;;;4964760;28;45381;-81
2022/03/07 10:55:33;;;;;;;1.00;0.65;;;22.00;40.40;;;;;;4967628;28;45407;-81
2022/03/07 10:58:09;;;;;;;0.55;0.55;;;22.10;40.50;;;;;;4999869;28;45492;-81
2022/03/07 11:00:49;;;;;;;1.10;0.60;;;22.20;40.20;;;;;;4983957;28;45298;-82
2022/03/07 11:03:20;;;;;;;1.33;0.77;;;22.20;40.10;;;;;;4991516;28;45238;-81
2022/03/07 11:05:45;;;;;;;2.78;0.55;;;22.30;40.40;;;;;;4966230;28;44669;-82
2022/03/07 11:08:11;;;;;;;0.57;0.50;;;22.40;40.40;;;;;;4979629;28;45153;-80
2022/03/07 11:10:37;;;;;;;0.60;0.60;;;22.40;40.30;;;;;;4997577;28;45026;-81
2022/03/07 11:13:02;;;;;;;0.80;0.70;;;22.50;41.00;;;;;;4980370;28;45343;-81
2022/03/07 11:15:28;;;;;;;1.10;0.52;;;22.50;40.30;;;;;;4999819;28;45255;-80
2022/03/07 11:17:54;;;;;;;0.52;0.50;;;22.60;40.30;;;;;;4977872;28;45208;-81
2022/03/07 11:20:19;;;;;;;0.45;0.38;;;22.60;40.20;;;;;;4984759;28;45074;-81
2022/03/07 11:22:45;;;;;;;0.60;0.50;;;22.70;40.20;;;;;;4967438;28;45182;-82
2022/03/07 11:25:11;;;;;;;0.50;0.50;;;22.70;40.20;;;;;;4950493;28;45666;-81
2022/03/07 11:27:37;;;;;;;1.00;0.68;;;22.80;40.20;;;;;;4963718;28;47076;-82
2022/03/07 11:30:13;;;;;;;0.43;0.43;;;22.90;40.20;;;;;;4999335;28;45432;-80
2022/03/07 11:32:39;;;;;;;0.95;0.60;;;22.90;39.90;;;;;;4969694;28;45159;-81
2022/03/07 11:35:05;;;;;;;0.93;0.65;;;23.00;40.10;;;;;;4990173;28;45774;-82
2022/03/07 11:37:31;;;;;;;0.65;0.50;;;23.00;40.10;;;;;;4971430;28;46880;-82
2022/03/07 11:39:58;;;;;;;0.57;0.47;;;23.10;40.00;;;;;;4974741;28;44990;-82
2022/03/07 11:42:33;;;;;;;0.60;0.50;;;23.10;40.00;;;;;;5012688;28;45245;-82
2022/03/07 11:45:04;;;;;;;0.57;0.47;;;23.20;40.00;;;;;;4983535;28;45387;-82
2022/03/07 11:47:35;;;;;;;2.22;0.45;;;23.20;39.80;;;;;;4967710;28;47172;-81
2022/03/07 11:50:01;;;;;;;0.90;0.40;;;23.30;39.90;;;;;;4967404;28;45424;-82
2022/03/07 11:52:27;;;;;;;0.60;0.52;;;23.30;39.90;;;;;;4966992;23;45355;-67
2022/03/07 11:54:57;;;;;;;0.40;0.30;;;23.30;39.90;;;;;;4970951;28;45405;-66
2022/03/07 11:57:36;;;;;;;0.60;0.60;;;23.40;39.80;;;;;;4962512;28;47776;-67
2022/03/07 12:00:19;;;;;;;0.52;0.50;;;23.40;39.50;;;;;;4963220;28;45220;-67
2022/03/07 12:02:53;;;;;;;0.38;0.32;;;23.50;39.60;;;;;;4966687;28;44804;-65
2022/03/07 12:05:32;;;;;;;0.52;0.45;;;23.50;39.70;;;;;;4975277;28;45797;-65
2022/03/07 12:08:11;;;;;;;1.20;0.45;;;23.50;39.60;;;;;;4960955;28;46823;-65
2022/03/07 12:10:58;;;;;;;1.67;0.50;;;23.60;39.50;;;;;;4977058;28;45580;-64
2022/03/07 12:13:24;;;;;;;0.60;0.60;;;23.60;39.70;;;;;;4960532;28;45339;-64
2022/03/07 12:15:53;;;;;;;0.63;0.52;;;23.70;39.70;;;;;;4978400;28;45088;-64
2022/03/07 12:18:18;;;;;;;0.60;0.50;;;23.70;40.30;;;;;;4965430;28;46268;-64
2022/03/07 12:20:48;;;;;;;0.57;0.50;;;23.80;39.60;;;;;;4926839;28;44727;-64
2022/03/07 12:23:18;;;;;;;0.45;0.45;;;23.80;39.50;;;;;;4975760;28;45280;-65
2022/03/07 12:25:45;;;;;;;0.65;0.50;;;23.90;39.50;;;;;;4959805;28;45126;-66
2022/03/07 12:28:11;;;;;;;0.73;0.50;;;23.90;39.50;;;;;;4961265;28;45245;-64
2022/03/07 12:30:36;;;;;;;0.70;0.50;;;24.00;39.50;;;;;;4975276;28;45499;-64
2022/03/07 12:33:09;;;;;;;0.50;0.50;;;24.00;39.40;;;;;;4955203;28;45508;-64
2022/03/07 12:35:34;;;;;;;3.08;0.60;;;24.10;39.30;;;;;;4975582;28;45139;-65
2022/03/07 12:38:00;;;;;;;1.17;0.40;;;24.10;39.40;;;;;;4968603;28;45367;-66
2022/03/07 12:40:26;;;;;;;1.63;0.50;;;24.20;39.40;;;;;;4959617;28;45223;-65
2022/03/07 12:42:52;;;;;;;0.52;0.47;;;24.20;39.40;;;;;;4976362;28;45219;-64
2022/03/07 12:45:17;;;;;;;0.32;0.30;;;24.30;39.40;;;;;;4976052;28;45124;-64
2022/03/07 12:47:43;;;;;;;0.73;0.40;;;24.30;39.90;;;;;;4970300;28;45293;-65
2022/03/07 12:50:10;;;;;;;0.40;0.30;;;24.40;39.30;;;;;;4959123;28;45160;-66
2022/03/07 12:52:37;;;;;;;1.02;0.60;;;24.40;39.30;;;;;;4952743;28;44822;-65
2022/03/07 12:55:07;;;;;;;0.40;0.40;;;24.40;39.20;;;;;;4943282;28;46524;-64
2022/03/07 12:57:33;;;;;;;0.40;0.32;;;24.50;39.20;;;;;;4955366;28;45184;-64
2022/03/07 13:00:00;;;;;;;0.55;0.40;;;24.50;39.20;;;;;;4970958;28;45311;-65
2022/03/07 13:02:33;;;;;;;1.23;0.60;;;24.50;39.10;;;;;;4973870;28;45305;-65
2022/03/07 13:04:59;;;;;;;0.68;0.50;;;24.60;39.00;;;;;;4975367;28;45100;-65
2022/03/07 13:07:25;;;;;;;0.47;0.40;;;24.60;39.20;;;;;;4972293;28;45341;-65
2022/03/07 13:09:51;;;;;;;0.75;0.57;;;24.70;39.20;;;;;;4963000;28;45119;-64
2022/03/07 13:12:17;;;;;;;0.40;0.40;;;24.70;39.10;;;;;;4971566;28;45472;-65
2022/03/07 13:14:42;;;;;;;0.50;0.43;;;24.70;39.10;;;;;;4976095;28;44810;-65
2022/03/07 13:17:16;;;;;;;0.68;0.50;;;24.80;39.10;;;;;;4968876;28;46285;-65
2022/03/07 13:19:47;;;;;;;0.60;0.38;;;24.80;39.10;;;;;;4981137;28;45298;-65
2022/03/07 13:22:12;;;;;;;2.25;0.40;;;24.80;39.00;;;;;;4960881;28;45206;-65
2022/03/07 13:24:38;;;;;;;0.40;0.40;;;24.80;39.00;;;;;;4983966;28;45147;-65
2022/03/07 13:27:11;;;;;;;0.60;0.47;;;24.90;39.10;;;;;;4973941;28;45851;-65
2022/03/07 13:29:38;;;;;;;0.88;0.45;;;24.90;39.00;;;;;;4971650;28;45343;-64
2022/03/07 13:32:05;;;;;;;1.50;0.50;;;24.90;39.00;;;;;;4973879;28;45328;-64
2022/03/07 13:34:44;;;;;;;0.90;0.50;;;25.00;39.00;;;;;;4964498;28;45610;-65
2022/03/07 13:37:11;;;;;;;1.08;0.30;;;25.00;38.80;;;;;;4960358;28;46101;-66
2022/03/07 13:39:37;;;;;;;0.98;0.40;;;25.00;39.00;;;;;;4978460;28;45314;-65
2022/03/07 13:42:07;;;;;;;0.30;0.30;;;25.10;39.00;;;;;;4963108;28;45489;-64
2022/03/07 13:44:51;;;;;;;0.52;0.30;;;25.10;39.00;;;;;;4978838;28;45211;-65
2022/03/07 13:47:17;;;;;;;0.40;0.40;;;25.10;38.70;;;;;;4978767;28;45361;-65
2022/03/07 13:49:45;;;;;;;1.23;0.38;;;25.10;39.00;;;;;;4983082;28;45265;-65
2022/03/07 13:52:22;;;;;;;0.22;0.22;;;25.20;39.00;;;;;;4977034;28;45337;-66
2022/03/07 13:54:49;;;;;;;0.32;0.32;;;25.20;38.80;;;;;;4979381;28;45238;-65
2022/03/07 13:57:14;;;;;;;0.30;0.30;;;25.20;39.00;;;;;;4969433;28;46155;-67
2022/03/07 13:59:54;;;;;;;0.55;0.50;;;25.20;38.90;;;;;;4959886;28;44579;-65
2022/03/07 14:02:20;;;;;;;0.60;0.45;;;25.30;38.80;;;;;;4970026;28;45447;-64
2022/03/07 14:04:59;;;;;;;0.50;0.40;;;25.30;39.00;;;;;;4965856;28;44833;-66
2022/03/07 14:07:26;;;;;;;0.90;0.47;;;25.30;38.70;;;;;;4961637;28;45517;-65
2022/03/07 14:10:13;;;;;;;1.48;0.40;;;25.30;39.00;;;;;;4964095;28;45159;-65
2022/03/07 14:12:40;;;;;;;0.35;0.25;;;25.30;39.00;;;;;;4966401;28;45230;-65
2022/03/07 14:15:07;;;;;;;0.57;0.47;;;25.40;39.00;;;;;;4978331;28;45215;-66
2022/03/07 14:17:34;;;;;;;0.40;0.40;;;25.40;39.00;;;;;;4983034;28;45313;-64
2022/03/07 14:20:00;;;;;;;0.88;0.47;;;25.40;39.00;;;;;;4980231;28;45287;-65
2022/03/07 14:22:26;;;;;;;0.63;0.50;;;25.40;39.00;;;;;;4966291;28;45248;-65
2022/03/07 14:24:53;;;;;;;0.95;0.30;;;25.40;38.90;;;;;;4978178;28;45302;-65
2022/03/07 14:27:21;;;;;;;0.40;0.40;;;25.40;38.90;;;;;;4962484;28;46015;-65
2022/03/07 14:29:47;;;;;;;0.57;0.28;;;25.40;38.90;;;;;;4976582;28;45365;-65
2022/03/07 14:32:13;;;;;;;1.05;0.30;;;25.40;38.90;;;;;;4949254;28;45388;-65
2022/03/07 14:34:38;;;;;;;0.50;0.50;;;25.50;39.00;;;;;;4944987;28;45315;-64
2022/03/07 14:37:05;;;;;;;0.30;0.30;;;25.50;39.00;;;;;;4967735;28;45404;-65
2022/03/07 14:39:31;;;;;;;0.30;0.30;;;25.50;38.90;;;;;;4944866;28;44724;-66
2022/03/07 14:41:57;;;;;;;0.75;0.38;;;25.50;38.90;;;;;;4977184;28;44696;-66
2022/03/07 14:44:23;;;;;;;0.60;0.45;;;25.50;38.90;;;;;;4973939;28;45219;-66
2022/03/07 14:46:48;;;;;;;0.55;0.32;;;25.60;39.00;;;;;;4979628;28;45186;-65
2022/03/07 14:49:14;;;;;;;0.35;0.35;;;25.50;38.90;;;;;;4971801;28;45290;-66
2022/03/07 14:51:40;;;;;;;0.35;0.30;;;25.60;38.90;;;;;;4961682;28;44868;-65
2022/03/07 14:54:05;;;;;;;0.30;0.30;;;25.60;38.90;;;;;;4973027;28;45401;-65
2022/03/07 14:56:31;;;;;;;0.30;0.30;;;25.60;39.00;;;;;;4960426;28;45383;-65
2022/03/07 14:58:58;;;;;;;0.50;0.40;;;25.60;39.20;;;;;;4945147;28;44568;-65
2022/03/07 15:01:25;;;;;;;0.35;0.35;;;25.60;39.60;;;;;;4960525;28;45168;-64
2022/03/07 15:03:51;;;;;;;0.68;0.40;;;25.60;39.00;;;;;;4967214;28;45420;-66
2022/03/07 15:06:17;;;;;;;0.70;0.40;;;25.60;39.00;;;;;;4963360;28;46057;-65
2022/03/07 15:08:42;;;;;;;0.82;0.32;;;25.60;39.00;;;;;;4946267;28;44754;-66
2022/03/07 15:11:08;;;;;;;0.32;0.32;;;25.70;39.00;;;;;;4975341;28;45578;-65
2022/03/07 15:13:34;;;;;;;1.23;0.40;;;25.70;39.00;;;;;;4959657;28;45375;-65
2022/03/07 15:15:59;;;;;;;0.43;0.30;;;25.70;39.00;;;;;;4949390;28;46683;-65
2022/03/07 15:18:25;;;;;;;0.30;0.30;;;25.70;39.10;;;;;;4969762;28;44645;-65
2022/03/07 15:20:50;;;;;;;0.40;0.40;;;25.70;39.00;;;;;;4966653;28;45484;-66
2022/03/07 15:23:17;;;;;;;0.85;0.50;;;25.70;39.00;;;;;;4952959;28;45785;-65
2022/03/07 15:25:46;;;;;;;0.45;0.40;;;25.70;39.00;;;;;;4942342;28;47139;-65
2022/03/07 15:28:13;;;;;;;0.32;0.32;;;25.70;39.00;;;;;;4973592;28;44942;-66
2022/03/07 15:30:39;;;;;;;0.30;0.30;;;25.80;39.10;;;;;;4955871;28;45128;-66
2022/03/07 15:33:04;;;;;;;0.68;0.60;;;25.80;39.10;;;;;;4957174;28;45286;-66
2022/03/07 15:35:30;;;;;;;0.73;0.50;;;25.80;39.00;;;;;;4969618;28;45459;-66
2022/03/07 15:37:56;;;;;;;0.38;0.38;;;25.70;39.00;;;;;;4954533;28;45583;-66
2022/03/07 15:40:23;;;;;;;0.52;0.38;;;25.60;39.20;;;;;;4953099;28;44949;-66
2022/03/07 15:42:49;;;;;;;0.85;0.47;;;25.50;39.10;;;;;;4979694;28;45222;-67
2022/03/07 15:45:14;;;;;;;0.80;0.50;;;25.40;38.80;;;;;;4952233;28;45208;-67
2022/03/07 15:47:40;;;;;;;1.10;0.68;;;25.40;38.80;;;;;;4958582;28;45486;-67
2022/03/07 15:50:06;;;;;;;0.55;0.55;;;25.30;38.90;;;;;;4957341;28;45320;-67
2022/03/07 15:52:36;;;;;;;0.50;0.40;;;25.30;38.90;;;;;;4971858;28;44811;-66
2022/03/07 15:55:03;;;;;;;0.80;0.52;;;25.10;39.00;;;;;;4966808;28;45169;-66
2022/03/07 15:57:29;;;;;;;1.25;0.63;;;25.00;39.20;;;;;;4959371;28;45351;-67
2022/03/07 15:59:55;;;;;;;0.73;0.50;;;24.90;39.40;;;;;;4971400;28;45204;-67
2022/03/07 16:02:20;;;;;;;1.08;0.60;;;24.80;39.50;;;;;;4956016;28;45151;-67
2022/03/07 16:04:46;;;;;;;0.40;0.40;;;24.80;39.70;;;;;;4959057;28;47995;-67
2022/03/07 16:07:11;;;;;;;0.77;0.38;;;24.70;39.80;;;;;;4943757;28;45345;-67
2022/03/07 16:09:37;;;;;;;0.55;0.50;;;24.60;39.80;;;;;;4947604;28;44743;-66
2022/03/07 16:12:03;;;;;;;0.73;0.40;;;24.50;40.00;;;;;;4965423;28;45251;-67
2022/03/07 16:14:29;;;;;;;0.77;0.50;;;24.40;40.00;;;;;;4933534;28;46345;-66
2022/03/07 16:16:56;;;;;;;0.55;0.55;;;24.40;40.20;;;;;;4928812;28;45672;-67
2022/03/07 16:19:22;;;;;;;2.30;0.50;;;24.30;40.30;;;;;;4967694;28;45598;-66
2022/03/07 16:21:48;;;;;;;1.10;0.50;;;24.20;40.30;;;;;;4949522;28;45878;-66
2022/03/07 16:24:16;;;;;;;0.50;0.40;;;24.10;40.40;;;;;;4934464;28;45299;-66
2022/03/07 16:26:42;;;;;;;0.43;0.43;;;24.00;40.60;;;;;;4935580;28;45816;-65
2022/03/07 16:29:08;;;;;;;0.50;0.50;;;23.90;40.70;;;;;;4968870;28;45477;-65
2022/03/07 16:31:33;;;;;;;0.75;0.40;;;23.80;40.80;;;;;;4950407;28;44847;-66
2022/03/07 16:33:59;;;;;;;0.50;0.50;;;23.70;40.90;;;;;;4951393;28;46073;-66
2022/03/07 16:36:25;;;;;;;0.30;0.30;;;23.60;41.10;;;;;;4957459;28;45066;-66
2022/03/07 16:38:50;;;;;;;0.57;0.40;;;23.50;41.20;;;;;;4936328;28;45126;-65
2022/03/07 16:41:17;;;;;;;0.60;0.50;;;23.40;41.40;;;;;;4951487;28;45820;-66
2022/03/07 16:43:43;;;;;;;0.60;0.50;;;23.30;41.50;;;;;;4948534;28;46395;-65
2022/03/07 16:46:08;;;;;;;0.85;0.55;;;23.20;41.60;;;;;;4950967;28;45507;-66
2022/03/07 16:48:35;;;;;;;0.52;0.52;;;23.20;41.60;;;;;;4949505;28;45011;-65
2022/03/07 16:51:01;;;;;;;0.80;0.60;;;23.10;41.80;;;;;;4952702;28;45234;-66
2022/03/07 16:53:26;;;;;;;0.75;0.40;;;23.00;41.90;;;;;;4949645;28;47064;-66
2022/03/07 16:55:52;;;;;;;0.50;0.50;;;22.90;42.00;;;;;;4953642;28;45157;-66
2022/03/07 16:58:18;;;;;;;0.50;0.50;;;22.80;42.10;;;;;;4935969;28;45307;-65
2022/03/07 17:00:43;;;;;;;0.40;0.38;;;22.80;42.20;;;;;;4951849;28;45369;-65
2022/03/07 17:03:09;;;;;;;0.60;0.55;;;22.70;42.30;;;;;;4935839;28;45268;-65
2022/03/07 17:05:35;;;;;;;0.45;0.45;;;22.60;42.30;;;;;;4968791;28;45565;-65
2022/03/07 17:08:01;;;;;;;0.43;0.40;;;22.60;42.40;;;;;;4953639;28;45258;-65
2022/03/07 17:10:27;;;;;;;0.60;0.60;;;22.50;42.40;;;;;;4931896;28;45034;-66
2022/03/07 17:12:52;;;;;;;1.15;0.70;;;22.40;42.50;;;;;;4951884;28;46312;-66
2022/03/07 17:15:18;;;;;;;0.40;0.40;;;22.40;42.60;;;;;;4936239;28;45498;-66
2022/03/07 17:17:44;;;;;;;0.73;0.50;;;22.20;42.60;;;;;;4969101;28;45089;-66
2022/03/07 17:20:11;;;;;;;0.45;0.45;;;22.20;42.80;;;;;;4952458;28;45940;-66
2022/03/07 17:22:40;;;;;;;0.47;0.43;;;22.10;42.90;;;;;;4953541;28;45377;-66
2022/03/07 17:25:06;;;;;;;0.77;0.52;;;22.10;42.80;;;;;;4954347;28;45287;-66
2022/03/07 17:27:31;;;;;;;0.70;0.70;;;22.00;42.90;;;;;;4953383;28;45116;-67
2022/03/07 17:29:57;;;;;;;0.75;0.52;;;22.00;42.90;;;;;;4936141;28;45556;-66
2022/03/07 17:32:22;;;;;;;0.77;0.50;;;21.90;42.90;;;;;;4954338;28;45125;-66